sensor_id;sensor_type;location;lat;lon;timestamp;P1;durP1;ratioP1;P2;durP2;ratioP2
43114;SDS011;28727;50.068;14.452;2022-12-17T00:02:16;65.05;;;29.70;;
43114;SDS011;28727;50.068;14.452;2022-12-17T00:05:07;58.10;;;26.52;;
43114;SDS011;28727;50.068;14.452;2022-12-17T00:07:58;64.43;;;28.75;;
43114;SDS011;28727;50.068;14.452;2022-12-17T00:10:48;65.38;;;28.77;;
43114;SDS011;28727;50.068;14.452;2022-12-17T00:13:39;63.25;;;28.42;;
43114;SDS011;28727;50.068;14.452;2022-12-17T00:16:30;57.72;;;27.30;;
43114;SDS011;28727;50.068;14.452;2022-12-17T00:19:20;60.90;;;28.05;;
43114;SDS011;28727;50.068;14.452;2022-12-17T00:22:09;62.70;;;28.27;;
43114;SDS011;28727;50.068;14.452;2022-12-17T00:25:00;60.60;;;27.48;;
43114;SDS011;28727;50.068;14.452;2022-12-17T00:27:50;63.05;;;27.75;;
43114;SDS011;28727;50.068;14.452;2022-12-17T00:30:41;57.47;;;26.83;;
43114;SDS011;28727;50.068;14.452;2022-12-17T00:33:34;58.22;;;26.02;;
43114;SDS011;28727;50.068;14.452;2022-12-17T00:36:24;57.88;;;26.25;;
43114;SDS011;28727;50.068;14.452;2022-12-17T00:39:16;61.13;;;27.90;;
43114;SDS011;28727;50.068;14.452;2022-12-17T00:42:06;61.08;;;27.58;;
43114;SDS011;28727;50.068;14.452;2022-12-17T00:44:56;62.30;;;25.85;;
43114;SDS011;28727;50.068;14.452;2022-12-17T00:47:50;61.65;;;26.30;;
43114;SDS011;28727;50.068;14.452;2022-12-17T00:50:40;59.50;;;26.30;;
43114;SDS011;28727;50.068;14.452;2022-12-17T00:53:30;58.22;;;26.08;;
43114;SDS011;28727;50.068;14.452;2022-12-17T00:56:21;59.95;;;27.05;;
43114;SDS011;28727;50.068;14.452;2022-12-17T00:59:11;53.90;;;25.17;;
43114;SDS011;28727;50.068;14.452;2022-12-17T01:02:03;58.83;;;25.90;;
43114;SDS011;28727;50.068;14.452;2022-12-17T01:04:53;55.08;;;24.42;;
43114;SDS011;28727;50.068;14.452;2022-12-17T01:07:43;49.63;;;23.33;;
43114;SDS011;28727;50.068;14.452;2022-12-17T01:10:34;51.90;;;24.63;;
43114;SDS011;28727;50.068;14.452;2022-12-17T01:13:26;53.67;;;23.77;;
43114;SDS011;28727;50.068;14.452;2022-12-17T01:16:17;53.03;;;22.70;;
43114;SDS011;28727;50.068;14.452;2022-12-17T01:19:08;53.83;;;24.15;;
43114;SDS011;28727;50.068;14.452;2022-12-17T01:21:58;49.60;;;22.98;;
43114;SDS011;28727;50.068;14.452;2022-12-17T01:24:48;48.28;;;22.45;;
43114;SDS011;28727;50.068;14.452;2022-12-17T01:27:39;46.58;;;22.40;;
43114;SDS011;28727;50.068;14.452;2022-12-17T01:30:30;48.78;;;21.80;;
43114;SDS011;28727;50.068;14.452;2022-12-17T01:33:20;48.60;;;21.98;;
43114;SDS011;28727;50.068;14.452;2022-12-17T01:36:10;53.10;;;21.98;;
43114;SDS011;28727;50.068;14.452;2022-12-17T01:39:01;50.83;;;22.70;;
43114;SDS011;28727;50.068;14.452;2022-12-17T01:41:51;44.35;;;20.85;;
43114;SDS011;28727;50.068;14.452;2022-12-17T01:44:46;43.47;;;20.88;;
43114;SDS011;28727;50.068;14.452;2022-12-17T01:47:43;48.63;;;21.52;;
43114;SDS011;28727;50.068;14.452;2022-12-17T01:50:38;43.45;;;21.05;;
43114;SDS011;28727;50.068;14.452;2022-12-17T01:53:50;44.67;;;20.38;;
43114;SDS011;28727;50.068;14.452;2022-12-17T01:56:42;44.50;;;20.27;;
43114;SDS011;28727;50.068;14.452;2022-12-17T01:59:43;39.65;;;18.33;;
43114;SDS011;28727;50.068;14.452;2022-12-17T02:02:45;41.83;;;18.67;;
43114;SDS011;28727;50.068;14.452;2022-12-17T02:11:33;36.47;;;17.58;;
43114;SDS011;28727;50.068;14.452;2022-12-17T02:15:04;35.78;;;16.23;;
43114;SDS011;28727;50.068;14.452;2022-12-17T02:17:57;34.22;;;16.17;;
43114;SDS011;28727;50.068;14.452;2022-12-17T02:20:51;36.40;;;16.90;;
43114;SDS011;28727;50.068;14.452;2022-12-17T02:26:51;35.40;;;16.83;;
43114;SDS011;28727;50.068;14.452;2022-12-17T02:29:47;37.03;;;17.27;;
43114;SDS011;28727;50.068;14.452;2022-12-17T02:32:43;43.17;;;20.33;;
43114;SDS011;28727;50.068;14.452;2022-12-17T02:35:43;36.13;;;17.73;;
43114;SDS011;28727;50.068;14.452;2022-12-17T02:38:37;33.63;;;17.67;;
43114;SDS011;28727;50.068;14.452;2022-12-17T02:41:31;37.78;;;17.40;;
43114;SDS011;28727;50.068;14.452;2022-12-17T02:44:50;37.00;;;16.80;;
43114;SDS011;28727;50.068;14.452;2022-12-17T02:47:43;42.83;;;19.58;;
43114;SDS011;28727;50.068;14.452;2022-12-17T02:50:33;37.45;;;17.35;;
43114;SDS011;28727;50.068;14.452;2022-12-17T02:53:24;40.53;;;19.17;;
43114;SDS011;28727;50.068;14.452;2022-12-17T02:56:16;37.60;;;17.58;;
43114;SDS011;28727;50.068;14.452;2022-12-17T02:59:07;44.30;;;17.20;;
43114;SDS011;28727;50.068;14.452;2022-12-17T03:01:57;38.22;;;16.98;;
43114;SDS011;28727;50.068;14.452;2022-12-17T03:04:48;39.25;;;17.10;;
43114;SDS011;28727;50.068;14.452;2022-12-17T03:07:58;36.90;;;16.70;;
43114;SDS011;28727;50.068;14.452;2022-12-17T03:10:48;39.75;;;17.77;;
43114;SDS011;28727;50.068;14.452;2022-12-17T03:13:38;39.38;;;17.35;;
43114;SDS011;28727;50.068;14.452;2022-12-17T03:16:29;39.10;;;18.05;;
43114;SDS011;28727;50.068;14.452;2022-12-17T03:19:19;38.55;;;17.92;;
43114;SDS011;28727;50.068;14.452;2022-12-17T03:22:09;36.47;;;17.15;;
43114;SDS011;28727;50.068;14.452;2022-12-17T03:24:59;36.13;;;17.45;;
43114;SDS011;28727;50.068;14.452;2022-12-17T03:27:49;37.67;;;17.23;;
43114;SDS011;28727;50.068;14.452;2022-12-17T03:30:39;36.60;;;17.00;;
43114;SDS011;28727;50.068;14.452;2022-12-17T03:33:29;36.70;;;16.95;;
43114;SDS011;28727;50.068;14.452;2022-12-17T03:36:19;38.72;;;17.73;;
43114;SDS011;28727;50.068;14.452;2022-12-17T03:39:10;37.70;;;17.08;;
43114;SDS011;28727;50.068;14.452;2022-12-17T03:42:00;36.80;;;17.10;;
43114;SDS011;28727;50.068;14.452;2022-12-17T03:44:50;37.33;;;16.92;;
43114;SDS011;28727;50.068;14.452;2022-12-17T03:47:40;34.80;;;16.15;;
43114;SDS011;28727;50.068;14.452;2022-12-17T03:50:30;37.60;;;16.98;;
43114;SDS011;28727;50.068;14.452;2022-12-17T03:53:20;37.15;;;17.65;;
43114;SDS011;28727;50.068;14.452;2022-12-17T03:56:10;39.58;;;16.60;;
43114;SDS011;28727;50.068;14.452;2022-12-17T03:59:01;32.30;;;16.67;;
43114;SDS011;28727;50.068;14.452;2022-12-17T04:01:51;37.47;;;17.15;;
43114;SDS011;28727;50.068;14.452;2022-12-17T04:04:41;38.85;;;17.98;;
43114;SDS011;28727;50.068;14.452;2022-12-17T04:07:32;36.95;;;15.95;;
43114;SDS011;28727;50.068;14.452;2022-12-17T04:10:22;34.85;;;15.95;;
43114;SDS011;28727;50.068;14.452;2022-12-17T04:13:12;36.88;;;17.48;;
43114;SDS011;28727;50.068;14.452;2022-12-17T04:16:13;39.97;;;17.83;;
43114;SDS011;28727;50.068;14.452;2022-12-17T04:19:03;39.55;;;17.63;;
43114;SDS011;28727;50.068;14.452;2022-12-17T04:21:53;37.28;;;17.05;;
43114;SDS011;28727;50.068;14.452;2022-12-17T04:24:43;38.50;;;17.00;;
43114;SDS011;28727;50.068;14.452;2022-12-17T04:27:33;40.50;;;17.05;;
43114;SDS011;28727;50.068;14.452;2022-12-17T04:30:23;36.30;;;17.73;;
43114;SDS011;28727;50.068;14.452;2022-12-17T04:33:13;36.35;;;16.30;;
43114;SDS011;28727;50.068;14.452;2022-12-17T04:36:04;35.92;;;17.42;;
43114;SDS011;28727;50.068;14.452;2022-12-17T04:38:55;43.47;;;19.08;;
43114;SDS011;28727;50.068;14.452;2022-12-17T04:41:45;40.67;;;18.77;;
43114;SDS011;28727;50.068;14.452;2022-12-17T04:44:35;37.72;;;17.48;;
43114;SDS011;28727;50.068;14.452;2022-12-17T04:47:25;38.20;;;17.95;;
43114;SDS011;28727;50.068;14.452;2022-12-17T04:50:16;40.22;;;18.75;;
43114;SDS011;28727;50.068;14.452;2022-12-17T04:53:06;45.38;;;19.73;;
43114;SDS011;28727;50.068;14.452;2022-12-17T04:55:56;40.17;;;19.00;;
43114;SDS011;28727;50.068;14.452;2022-12-17T04:58:46;36.88;;;17.75;;
43114;SDS011;28727;50.068;14.452;2022-12-17T05:01:39;39.33;;;18.27;;
43114;SDS011;28727;50.068;14.452;2022-12-17T05:04:29;39.45;;;18.35;;
43114;SDS011;28727;50.068;14.452;2022-12-17T05:07:19;40.40;;;18.40;;
43114;SDS011;28727;50.068;14.452;2022-12-17T05:10:09;42.72;;;18.95;;
43114;SDS011;28727;50.068;14.452;2022-12-17T05:12:59;42.72;;;18.45;;
43114;SDS011;28727;50.068;14.452;2022-12-17T05:15:54;41.63;;;20.52;;
43114;SDS011;28727;50.068;14.452;2022-12-17T05:18:45;38.92;;;19.00;;
43114;SDS011;28727;50.068;14.452;2022-12-17T05:21:35;40.08;;;19.17;;
43114;SDS011;28727;50.068;14.452;2022-12-17T05:24:32;42.20;;;19.05;;
43114;SDS011;28727;50.068;14.452;2022-12-17T05:27:22;41.25;;;19.50;;
43114;SDS011;28727;50.068;14.452;2022-12-17T05:30:12;38.45;;;19.02;;
43114;SDS011;28727;50.068;14.452;2022-12-17T05:33:03;42.67;;;18.52;;
43114;SDS011;28727;50.068;14.452;2022-12-17T05:35:53;39.80;;;18.38;;
43114;SDS011;28727;50.068;14.452;2022-12-17T05:38:44;37.95;;;16.90;;
43114;SDS011;28727;50.068;14.452;2022-12-17T05:41:34;42.85;;;19.70;;
43114;SDS011;28727;50.068;14.452;2022-12-17T05:44:24;46.17;;;20.02;;
43114;SDS011;28727;50.068;14.452;2022-12-17T05:47:14;42.40;;;19.23;;
43114;SDS011;28727;50.068;14.452;2022-12-17T05:50:04;39.90;;;19.27;;
43114;SDS011;28727;50.068;14.452;2022-12-17T05:52:59;46.20;;;19.15;;
43114;SDS011;28727;50.068;14.452;2022-12-17T05:55:53;38.53;;;18.73;;
43114;SDS011;28727;50.068;14.452;2022-12-17T05:58:43;40.05;;;18.75;;
43114;SDS011;28727;50.068;14.452;2022-12-17T06:01:33;40.63;;;19.35;;
43114;SDS011;28727;50.068;14.452;2022-12-17T06:04:24;39.08;;;18.83;;
43114;SDS011;28727;50.068;14.452;2022-12-17T06:07:14;43.50;;;18.98;;
43114;SDS011;28727;50.068;14.452;2022-12-17T06:10:04;38.42;;;18.80;;
43114;SDS011;28727;50.068;14.452;2022-12-17T06:12:55;41.20;;;18.75;;
43114;SDS011;28727;50.068;14.452;2022-12-17T06:15:48;41.67;;;18.38;;
43114;SDS011;28727;50.068;14.452;2022-12-17T06:18:39;37.05;;;17.08;;
43114;SDS011;28727;50.068;14.452;2022-12-17T06:21:29;36.95;;;18.98;;
43114;SDS011;28727;50.068;14.452;2022-12-17T06:24:20;42.05;;;19.27;;
43114;SDS011;28727;50.068;14.452;2022-12-17T06:27:16;37.42;;;17.92;;
43114;SDS011;28727;50.068;14.452;2022-12-17T06:30:07;38.00;;;17.83;;
43114;SDS011;28727;50.068;14.452;2022-12-17T06:33:04;35.35;;;16.85;;
43114;SDS011;28727;50.068;14.452;2022-12-17T06:35:56;40.00;;;18.20;;
43114;SDS011;28727;50.068;14.452;2022-12-17T06:38:53;33.30;;;16.77;;
43114;SDS011;28727;50.068;14.452;2022-12-17T06:41:43;38.88;;;17.88;;
43114;SDS011;28727;50.068;14.452;2022-12-17T06:44:35;36.75;;;17.52;;
43114;SDS011;28727;50.068;14.452;2022-12-17T06:47:25;38.75;;;18.85;;
43114;SDS011;28727;50.068;14.452;2022-12-17T06:50:15;38.65;;;18.42;;
43114;SDS011;28727;50.068;14.452;2022-12-17T06:53:06;37.17;;;16.58;;
43114;SDS011;28727;50.068;14.452;2022-12-17T06:55:57;41.00;;;18.10;;
43114;SDS011;28727;50.068;14.452;2022-12-17T06:58:48;37.55;;;17.70;;
43114;SDS011;28727;50.068;14.452;2022-12-17T07:01:38;34.17;;;18.05;;
43114;SDS011;28727;50.068;14.452;2022-12-17T07:04:29;35.15;;;16.60;;
43114;SDS011;28727;50.068;14.452;2022-12-17T07:07:19;39.83;;;18.60;;
43114;SDS011;28727;50.068;14.452;2022-12-17T07:10:09;35.70;;;16.48;;
43114;SDS011;28727;50.068;14.452;2022-12-17T07:13:05;39.80;;;17.08;;
43114;SDS011;28727;50.068;14.452;2022-12-17T07:18:54;36.22;;;16.75;;
43114;SDS011;28727;50.068;14.452;2022-12-17T07:21:45;37.70;;;17.95;;
43114;SDS011;28727;50.068;14.452;2022-12-17T07:24:35;38.97;;;17.90;;
43114;SDS011;28727;50.068;14.452;2022-12-17T07:27:25;36.50;;;16.52;;
43114;SDS011;28727;50.068;14.452;2022-12-17T07:30:15;37.90;;;17.90;;
43114;SDS011;28727;50.068;14.452;2022-12-17T07:33:06;39.35;;;18.13;;
43114;SDS011;28727;50.068;14.452;2022-12-17T07:36:18;37.08;;;16.17;;
43114;SDS011;28727;50.068;14.452;2022-12-17T07:39:08;34.60;;;17.50;;
43114;SDS011;28727;50.068;14.452;2022-12-17T07:41:58;36.22;;;17.13;;
43114;SDS011;28727;50.068;14.452;2022-12-17T07:44:48;35.70;;;15.45;;
43114;SDS011;28727;50.068;14.452;2022-12-17T07:47:38;29.17;;;14.68;;
43114;SDS011;28727;50.068;14.452;2022-12-17T07:50:28;34.13;;;15.70;;
43114;SDS011;28727;50.068;14.452;2022-12-17T07:53:19;35.88;;;16.27;;
43114;SDS011;28727;50.068;14.452;2022-12-17T07:56:09;35.92;;;15.60;;
43114;SDS011;28727;50.068;14.452;2022-12-17T07:58:59;35.45;;;16.77;;
43114;SDS011;28727;50.068;14.452;2022-12-17T08:01:49;38.25;;;16.52;;
43114;SDS011;28727;50.068;14.452;2022-12-17T08:04:40;31.15;;;15.88;;
43114;SDS011;28727;50.068;14.452;2022-12-17T08:07:30;30.00;;;15.70;;
43114;SDS011;28727;50.068;14.452;2022-12-17T08:10:20;32.00;;;14.73;;
43114;SDS011;28727;50.068;14.452;2022-12-17T08:13:11;30.00;;;15.57;;
43114;SDS011;28727;50.068;14.452;2022-12-17T08:16:01;35.90;;;15.85;;
43114;SDS011;28727;50.068;14.452;2022-12-17T08:18:51;33.70;;;16.27;;
43114;SDS011;28727;50.068;14.452;2022-12-17T08:21:47;30.27;;;15.13;;
43114;SDS011;28727;50.068;14.452;2022-12-17T08:24:37;29.73;;;14.70;;
43114;SDS011;28727;50.068;14.452;2022-12-17T08:27:27;30.10;;;14.40;;
43114;SDS011;28727;50.068;14.452;2022-12-17T08:30:18;28.83;;;14.88;;
43114;SDS011;28727;50.068;14.452;2022-12-17T08:33:08;31.88;;;14.93;;
43114;SDS011;28727;50.068;14.452;2022-12-17T08:35:58;30.55;;;15.40;;
43114;SDS011;28727;50.068;14.452;2022-12-17T08:38:48;35.10;;;14.95;;
43114;SDS011;28727;50.068;14.452;2022-12-17T08:41:38;30.38;;;13.80;;
43114;SDS011;28727;50.068;14.452;2022-12-17T08:44:34;28.20;;;13.75;;
43114;SDS011;28727;50.068;14.452;2022-12-17T08:47:27;28.35;;;12.82;;
43114;SDS011;28727;50.068;14.452;2022-12-17T08:50:18;27.10;;;13.90;;
43114;SDS011;28727;50.068;14.452;2022-12-17T08:53:08;30.15;;;13.70;;
43114;SDS011;28727;50.068;14.452;2022-12-17T08:56:05;28.95;;;13.18;;
43114;SDS011;28727;50.068;14.452;2022-12-17T08:58:55;27.58;;;13.23;;
43114;SDS011;28727;50.068;14.452;2022-12-17T09:01:45;23.55;;;12.38;;
43114;SDS011;28727;50.068;14.452;2022-12-17T09:04:36;22.42;;;11.43;;
43114;SDS011;28727;50.068;14.452;2022-12-17T09:07:26;24.83;;;11.77;;
43114;SDS011;28727;50.068;14.452;2022-12-17T09:10:16;24.75;;;12.02;;
43114;SDS011;28727;50.068;14.452;2022-12-17T09:13:06;22.00;;;10.30;;
43114;SDS011;28727;50.068;14.452;2022-12-17T09:15:56;28.35;;;12.05;;
43114;SDS011;28727;50.068;14.452;2022-12-17T09:18:46;23.85;;;11.60;;
43114;SDS011;28727;50.068;14.452;2022-12-17T09:21:36;23.00;;;11.40;;
43114;SDS011;28727;50.068;14.452;2022-12-17T09:24:30;22.33;;;11.00;;
43114;SDS011;28727;50.068;14.452;2022-12-17T09:27:20;24.27;;;11.82;;
43114;SDS011;28727;50.068;14.452;2022-12-17T09:30:10;24.20;;;11.75;;
43114;SDS011;28727;50.068;14.452;2022-12-17T09:33:01;23.92;;;10.00;;
43114;SDS011;28727;50.068;14.452;2022-12-17T09:36:11;22.58;;;10.80;;
43114;SDS011;28727;50.068;14.452;2022-12-17T09:39:01;22.58;;;11.23;;
43114;SDS011;28727;50.068;14.452;2022-12-17T09:42:04;23.30;;;10.38;;
43114;SDS011;28727;50.068;14.452;2022-12-17T09:51:52;28.70;;;11.63;;
43114;SDS011;28727;50.068;14.452;2022-12-17T09:54:43;24.10;;;11.43;;
43114;SDS011;28727;50.068;14.452;2022-12-17T09:57:37;22.60;;;10.55;;
43114;SDS011;28727;50.068;14.452;2022-12-17T10:00:28;24.92;;;11.90;;
43114;SDS011;28727;50.068;14.452;2022-12-17T10:03:19;88.60;;;24.90;;
43114;SDS011;28727;50.068;14.452;2022-12-17T10:06:15;43.45;;;16.30;;
43114;SDS011;28727;50.068;14.452;2022-12-17T10:09:11;26.10;;;12.80;;
43114;SDS011;28727;50.068;14.452;2022-12-17T10:12:11;22.77;;;11.63;;
43114;SDS011;28727;50.068;14.452;2022-12-17T10:15:02;26.55;;;12.48;;
43114;SDS011;28727;50.068;14.452;2022-12-17T10:17:53;26.17;;;12.18;;
43114;SDS011;28727;50.068;14.452;2022-12-17T10:20:45;27.70;;;12.80;;
43114;SDS011;28727;50.068;14.452;2022-12-17T10:23:41;28.50;;;12.65;;
43114;SDS011;28727;50.068;14.452;2022-12-17T10:26:32;30.45;;;12.88;;
43114;SDS011;28727;50.068;14.452;2022-12-17T10:29:30;31.40;;;14.35;;
43114;SDS011;28727;50.068;14.452;2022-12-17T10:32:21;29.88;;;14.25;;
43114;SDS011;28727;50.068;14.452;2022-12-17T10:35:33;29.85;;;13.20;;
43114;SDS011;28727;50.068;14.452;2022-12-17T10:38:26;28.42;;;14.48;;
43114;SDS011;28727;50.068;14.452;2022-12-17T10:41:23;33.22;;;15.00;;
43114;SDS011;28727;50.068;14.452;2022-12-17T10:44:27;31.35;;;15.02;;
43114;SDS011;28727;50.068;14.452;2022-12-17T10:47:19;33.70;;;14.73;;
43114;SDS011;28727;50.068;14.452;2022-12-17T10:50:21;29.73;;;14.70;;
43114;SDS011;28727;50.068;14.452;2022-12-17T10:53:19;32.38;;;15.55;;
43114;SDS011;28727;50.068;14.452;2022-12-17T10:56:18;30.40;;;15.48;;
43114;SDS011;28727;50.068;14.452;2022-12-17T10:59:12;34.00;;;15.45;;
43114;SDS011;28727;50.068;14.452;2022-12-17T11:02:18;33.03;;;15.25;;
43114;SDS011;28727;50.068;14.452;2022-12-17T11:05:14;27.05;;;14.18;;
43114;SDS011;28727;50.068;14.452;2022-12-17T11:08:14;27.08;;;12.52;;
43114;SDS011;28727;50.068;14.452;2022-12-17T11:11:06;26.73;;;12.35;;
43114;SDS011;28727;50.068;14.452;2022-12-17T11:14:01;23.92;;;11.90;;
43114;SDS011;28727;50.068;14.452;2022-12-17T11:16:55;22.83;;;11.25;;
43114;SDS011;28727;50.068;14.452;2022-12-17T11:19:54;22.42;;;11.38;;
43114;SDS011;28727;50.068;14.452;2022-12-17T11:22:53;23.83;;;11.30;;
43114;SDS011;28727;50.068;14.452;2022-12-17T11:25:55;22.10;;;11.07;;
43114;SDS011;28727;50.068;14.452;2022-12-17T11:28:48;25.08;;;11.32;;
43114;SDS011;28727;50.068;14.452;2022-12-17T11:31:54;22.17;;;10.70;;
43114;SDS011;28727;50.068;14.452;2022-12-17T11:38:23;22.15;;;10.85;;
43114;SDS011;28727;50.068;14.452;2022-12-17T11:41:25;22.90;;;11.30;;
43114;SDS011;28727;50.068;14.452;2022-12-17T11:44:50;18.00;;;8.95;;
43114;SDS011;28727;50.068;14.452;2022-12-17T11:47:44;24.27;;;10.93;;
43114;SDS011;28727;50.068;14.452;2022-12-17T11:50:45;21.35;;;10.98;;
43114;SDS011;28727;50.068;14.452;2022-12-17T12:03:26;23.10;;;10.05;;
43114;SDS011;28727;50.068;14.452;2022-12-17T12:06:43;18.33;;;9.13;;
43114;SDS011;28727;50.068;14.452;2022-12-17T12:09:47;16.27;;;8.07;;
43114;SDS011;28727;50.068;14.452;2022-12-17T12:16:01;14.25;;;7.75;;
43114;SDS011;28727;50.068;14.452;2022-12-17T12:19:15;16.88;;;8.65;;
43114;SDS011;28727;50.068;14.452;2022-12-17T12:25:52;15.48;;;7.10;;
43114;SDS011;28727;50.068;14.452;2022-12-17T12:29:01;18.20;;;7.85;;
43114;SDS011;28727;50.068;14.452;2022-12-17T12:32:13;15.75;;;7.53;;
43114;SDS011;28727;50.068;14.452;2022-12-17T12:35:25;18.25;;;8.90;;
43114;SDS011;28727;50.068;14.452;2022-12-17T12:38:25;18.27;;;8.45;;
43114;SDS011;28727;50.068;14.452;2022-12-17T12:41:25;15.88;;;8.55;;
43114;SDS011;28727;50.068;14.452;2022-12-17T12:44:21;18.15;;;8.32;;
43114;SDS011;28727;50.068;14.452;2022-12-17T12:47:29;16.10;;;7.75;;
43114;SDS011;28727;50.068;14.452;2022-12-17T12:50:29;15.68;;;7.18;;
43114;SDS011;28727;50.068;14.452;2022-12-17T12:53:30;12.82;;;6.55;;
43114;SDS011;28727;50.068;14.452;2022-12-17T12:56:34;16.50;;;7.30;;
43114;SDS011;28727;50.068;14.452;2022-12-17T13:08:21;14.38;;;6.85;;
43114;SDS011;28727;50.068;14.452;2022-12-17T13:10:54;23.77;;;13.90;;
43114;SDS011;28727;50.068;14.452;2022-12-17T13:13:33;16.73;;;7.47;;
43114;SDS011;28727;50.068;14.452;2022-12-17T13:19:18;11.88;;;5.78;;
43114;SDS011;28727;50.068;14.452;2022-12-17T13:21:52;14.55;;;7.05;;
43114;SDS011;28727;50.068;14.452;2022-12-17T13:24:25;18.95;;;7.22;;
43114;SDS011;28727;50.068;14.452;2022-12-17T13:26:57;13.73;;;8.45;;
43114;SDS011;28727;50.068;14.452;2022-12-17T13:29:33;14.00;;;7.10;;
43114;SDS011;28727;50.068;14.452;2022-12-17T13:32:19;14.43;;;7.13;;
43114;SDS011;28727;50.068;14.452;2022-12-17T13:37:48;13.98;;;7.50;;
43114;SDS011;28727;50.068;14.452;2022-12-17T13:43:16;15.20;;;7.80;;
43114;SDS011;28727;50.068;14.452;2022-12-17T13:45:51;19.00;;;8.32;;
43114;SDS011;28727;50.068;14.452;2022-12-17T13:48:27;16.58;;;7.43;;
43114;SDS011;28727;50.068;14.452;2022-12-17T13:51:00;15.95;;;7.95;;
43114;SDS011;28727;50.068;14.452;2022-12-17T13:53:33;15.95;;;7.50;;
43114;SDS011;28727;50.068;14.452;2022-12-17T13:56:05;16.48;;;9.00;;
43114;SDS011;28727;50.068;14.452;2022-12-17T13:58:37;15.95;;;7.93;;
43114;SDS011;28727;50.068;14.452;2022-12-17T14:01:10;17.27;;;8.40;;
43114;SDS011;28727;50.068;14.452;2022-12-17T14:03:49;17.20;;;8.98;;
43114;SDS011;28727;50.068;14.452;2022-12-17T14:06:39;16.40;;;8.45;;
43114;SDS011;28727;50.068;14.452;2022-12-17T14:09:21;17.17;;;8.55;;
43114;SDS011;28727;50.068;14.452;2022-12-17T14:11:58;18.17;;;8.55;;
43114;SDS011;28727;50.068;14.452;2022-12-17T14:17:28;18.38;;;7.95;;
43114;SDS011;28727;50.068;14.452;2022-12-17T14:20:25;19.05;;;8.52;;
43114;SDS011;28727;50.068;14.452;2022-12-17T14:23:11;18.05;;;9.15;;
43114;SDS011;28727;50.068;14.452;2022-12-17T14:25:49;19.65;;;9.13;;
43114;SDS011;28727;50.068;14.452;2022-12-17T14:28:28;19.58;;;9.00;;
43114;SDS011;28727;50.068;14.452;2022-12-17T14:31:04;18.90;;;9.07;;
43114;SDS011;28727;50.068;14.452;2022-12-17T14:34:04;18.48;;;9.70;;
43114;SDS011;28727;50.068;14.452;2022-12-17T14:36:39;19.60;;;9.23;;
43114;SDS011;28727;50.068;14.452;2022-12-17T14:39:16;21.17;;;10.00;;
43114;SDS011;28727;50.068;14.452;2022-12-17T14:42:06;20.67;;;9.35;;
43114;SDS011;28727;50.068;14.452;2022-12-17T14:45:06;19.08;;;9.52;;
43114;SDS011;28727;50.068;14.452;2022-12-17T14:47:54;21.20;;;9.95;;
43114;SDS011;28727;50.068;14.452;2022-12-17T14:50:31;21.83;;;9.77;;
43114;SDS011;28727;50.068;14.452;2022-12-17T14:53:24;21.23;;;9.52;;
43114;SDS011;28727;50.068;14.452;2022-12-17T14:55:58;23.73;;;10.45;;
43114;SDS011;28727;50.068;14.452;2022-12-17T14:58:30;21.45;;;9.85;;
43114;SDS011;28727;50.068;14.452;2022-12-17T15:01:06;23.60;;;11.55;;
43114;SDS011;28727;50.068;14.452;2022-12-17T15:03:43;24.77;;;10.90;;
43114;SDS011;28727;50.068;14.452;2022-12-17T15:06:23;24.98;;;11.85;;
43114;SDS011;28727;50.068;14.452;2022-12-17T15:08:57;23.85;;;11.05;;
43114;SDS011;28727;50.068;14.452;2022-12-17T15:11:29;23.13;;;11.93;;
43114;SDS011;28727;50.068;14.452;2022-12-17T15:14:00;25.20;;;11.80;;
43114;SDS011;28727;50.068;14.452;2022-12-17T15:16:32;24.42;;;11.43;;
43114;SDS011;28727;50.068;14.452;2022-12-17T15:19:04;26.45;;;11.15;;
43114;SDS011;28727;50.068;14.452;2022-12-17T15:21:35;24.70;;;11.43;;
43114;SDS011;28727;50.068;14.452;2022-12-17T15:24:09;25.02;;;12.13;;
43114;SDS011;28727;50.068;14.452;2022-12-17T15:26:44;27.05;;;12.18;;
43114;SDS011;28727;50.068;14.452;2022-12-17T15:29:16;26.63;;;12.05;;
43114;SDS011;28727;50.068;14.452;2022-12-17T15:31:47;29.38;;;12.40;;
43114;SDS011;28727;50.068;14.452;2022-12-17T15:34:19;28.10;;;13.32;;
43114;SDS011;28727;50.068;14.452;2022-12-17T15:36:51;28.23;;;12.77;;
43114;SDS011;28727;50.068;14.452;2022-12-17T15:39:22;34.13;;;13.65;;
43114;SDS011;28727;50.068;14.452;2022-12-17T15:41:54;26.80;;;12.70;;
43114;SDS011;28727;50.068;14.452;2022-12-17T15:44:44;30.10;;;13.65;;
43114;SDS011;28727;50.068;14.452;2022-12-17T15:47:15;28.40;;;12.95;;
43114;SDS011;28727;50.068;14.452;2022-12-17T15:49:47;30.33;;;13.75;;
43114;SDS011;28727;50.068;14.452;2022-12-17T15:52:19;26.90;;;14.00;;
43114;SDS011;28727;50.068;14.452;2022-12-17T15:54:50;30.50;;;14.38;;
43114;SDS011;28727;50.068;14.452;2022-12-17T15:57:22;27.95;;;13.38;;
43114;SDS011;28727;50.068;14.452;2022-12-17T15:59:54;30.73;;;14.13;;
43114;SDS011;28727;50.068;14.452;2022-12-17T16:02:28;29.35;;;13.68;;
43114;SDS011;28727;50.068;14.452;2022-12-17T16:05:00;28.75;;;13.95;;
43114;SDS011;28727;50.068;14.452;2022-12-17T16:07:31;31.73;;;14.32;;
43114;SDS011;28727;50.068;14.452;2022-12-17T16:10:04;30.10;;;14.15;;
43114;SDS011;28727;50.068;14.452;2022-12-17T16:12:39;30.70;;;13.73;;
43114;SDS011;28727;50.068;14.452;2022-12-17T16:15:21;31.10;;;14.63;;
43114;SDS011;28727;50.068;14.452;2022-12-17T16:17:56;33.33;;;13.68;;
43114;SDS011;28727;50.068;14.452;2022-12-17T16:20:28;29.88;;;13.85;;
43114;SDS011;28727;50.068;14.452;2022-12-17T16:23:07;29.13;;;13.25;;
43114;SDS011;28727;50.068;14.452;2022-12-17T16:25:39;29.05;;;13.45;;
43114;SDS011;28727;50.068;14.452;2022-12-17T16:28:12;31.85;;;14.23;;
43114;SDS011;28727;50.068;14.452;2022-12-17T16:30:43;29.15;;;13.98;;
43114;SDS011;28727;50.068;14.452;2022-12-17T16:33:15;30.85;;;14.38;;
43114;SDS011;28727;50.068;14.452;2022-12-17T16:35:53;37.08;;;15.73;;
43114;SDS011;28727;50.068;14.452;2022-12-17T16:38:25;29.10;;;13.38;;
43114;SDS011;28727;50.068;14.452;2022-12-17T16:40:57;28.88;;;14.50;;
43114;SDS011;28727;50.068;14.452;2022-12-17T16:43:32;36.90;;;15.80;;
43114;SDS011;28727;50.068;14.452;2022-12-17T16:46:04;33.88;;;16.10;;
43114;SDS011;28727;50.068;14.452;2022-12-17T16:48:42;30.40;;;15.05;;
43114;SDS011;28727;50.068;14.452;2022-12-17T16:51:15;32.10;;;14.23;;
43114;SDS011;28727;50.068;14.452;2022-12-17T16:53:58;31.60;;;15.03;;
43114;SDS011;28727;50.068;14.452;2022-12-17T16:56:30;32.83;;;15.73;;
43114;SDS011;28727;50.068;14.452;2022-12-17T16:59:10;36.22;;;16.25;;
43114;SDS011;28727;50.068;14.452;2022-12-17T17:01:44;35.92;;;15.60;;
43114;SDS011;28727;50.068;14.452;2022-12-17T17:04:18;37.70;;;17.63;;
43114;SDS011;28727;50.068;14.452;2022-12-17T17:06:53;40.35;;;17.77;;
43114;SDS011;28727;50.068;14.452;2022-12-17T17:09:26;36.50;;;17.38;;
43114;SDS011;28727;50.068;14.452;2022-12-17T17:11:57;37.63;;;18.67;;
43114;SDS011;28727;50.068;14.452;2022-12-17T17:14:29;37.83;;;17.75;;
43114;SDS011;28727;50.068;14.452;2022-12-17T17:17:01;39.72;;;18.10;;